createdAt,value
2023-02-05T00:03:50.600Z,21.15
2023-02-05T00:08:52.755Z,19.80
2023-02-05T00:13:54.899Z,19.30
2023-02-05T00:18:57.549Z,21.27
2023-02-05T00:23:59.551Z,19.98
2023-02-05T00:29:01.825Z,20.17
2023-02-05T00:34:03.734Z,20.40
2023-02-05T00:39:05.718Z,19.45
2023-02-05T00:44:07.598Z,19.67
2023-02-05T00:49:09.367Z,19.23
2023-02-05T00:54:11.527Z,18.27
2023-02-05T00:59:13.397Z,18.90
2023-02-05T01:04:15.334Z,20.17
2023-02-05T01:09:17.145Z,19.55
2023-02-05T01:14:18.924Z,17.98
2023-02-05T01:19:20.738Z,19.15
2023-02-05T01:24:22.512Z,19.38
2023-02-05T01:29:29.353Z,18.35
2023-02-05T01:34:31.526Z,18.42
2023-02-05T01:39:33.374Z,18.25
2023-02-05T01:44:36.363Z,17.50
2023-02-05T01:49:43.624Z,16.98
2023-02-05T01:54:48.777Z,16.05
2023-02-05T01:59:51.234Z,15.63
2023-02-05T02:04:56.784Z,14.90
2023-02-05T02:09:59.059Z,16.17
2023-02-05T02:15:06.690Z,15.60
2023-02-05T02:20:14.209Z,15.05
2023-02-05T02:25:34.658Z,15.50
2023-02-05T02:30:56.674Z,11.48
2023-02-05T02:36:09.246Z,14.07
2023-02-05T02:41:19.865Z,15.15
2023-02-05T02:46:28.217Z,11.00
2023-02-05T02:51:31.886Z,13.43
2023-02-05T02:56:36.048Z,12.35
2023-02-05T03:01:44.663Z,11.68
2023-02-05T03:06:54.307Z,10.20
2023-02-05T03:11:56.120Z,9.88
2023-02-05T03:16:57.954Z,9.02
2023-02-05T03:22:04.192Z,8.65
2023-02-05T03:27:06.474Z,8.93
2023-02-05T03:32:28.935Z,7.45
2023-02-05T03:38:03.232Z,7.32
2023-02-05T03:43:34.191Z,6.57
2023-02-05T03:48:48.589Z,6.97
2023-02-05T03:54:18.474Z,6.20
2023-02-05T03:59:22.083Z,6.03
2023-02-05T04:04:24.268Z,5.93
2023-02-05T04:09:26.030Z,5.88
2023-02-05T04:14:27.809Z,5.38
2023-02-05T04:19:31.068Z,6.20
2023-02-05T04:24:33.084Z,5.13
2023-02-05T04:29:34.858Z,6.20
2023-02-05T04:34:36.682Z,4.72
2023-02-05T04:39:38.445Z,5.15
2023-02-05T04:44:40.237Z,4.95
2023-02-05T04:49:42.196Z,5.10
2023-02-05T04:54:44.071Z,5.18
2023-02-05T04:59:45.869Z,5.47
2023-02-05T05:04:47.620Z,6.60
2023-02-05T05:09:51.417Z,6.35
2023-02-05T05:14:54.234Z,6.50
2023-02-05T05:19:56.214Z,7.25
2023-02-05T05:24:58.018Z,7.20
2023-02-05T05:29:59.785Z,7.60
2023-02-05T05:35:01.712Z,8.27
2023-02-05T05:40:22.424Z,8.35
2023-02-05T05:45:24.432Z,7.30
2023-02-05T05:50:26.268Z,9.65
2023-02-05T05:55:28.053Z,12.18
2023-02-05T06:00:29.859Z,13.15
2023-02-05T06:05:32.938Z,13.35
2023-02-05T06:10:35.310Z,14.38
2023-02-05T06:15:37.962Z,14.55
2023-02-05T06:20:39.943Z,15.18
2023-02-05T06:25:41.752Z,15.30
2023-02-05T06:30:43.745Z,14.80
2023-02-05T06:35:46.528Z,15.10
2023-02-05T06:40:49.201Z,14.32
2023-02-05T06:45:50.997Z,15.38
2023-02-05T06:50:52.920Z,15.70
2023-02-05T06:55:58.516Z,15.43
2023-02-05T07:01:00.286Z,15.05
2023-02-05T07:06:04.412Z,14.20
2023-02-05T07:11:06.485Z,14.68
2023-02-05T07:16:08.733Z,10.88
2023-02-05T07:21:16.290Z,5.85
2023-02-05T07:26:18.680Z,4.07
2023-02-05T07:31:20.810Z,3.15
2023-02-05T07:36:22.640Z,1.92
2023-02-05T07:41:26.802Z,1.95
2023-02-05T07:46:28.852Z,1.48
2023-02-05T07:51:30.783Z,1.05
2023-02-05T07:56:32.574Z,1.30
2023-02-05T08:01:35.124Z,1.45
2023-02-05T08:06:36.886Z,1.10
2023-02-05T08:11:38.705Z,1.25
2023-02-05T08:16:40.582Z,1.98
2023-02-05T08:21:43.381Z,2.17
2023-02-05T08:26:45.373Z,1.30
2023-02-05T08:31:47.252Z,1.27
2023-02-05T08:36:49.333Z,1.20
2023-02-05T08:41:51.274Z,1.05
2023-02-05T08:46:53.169Z,1.17
2023-02-05T08:51:55.000Z,0.93
2023-02-05T08:56:57.509Z,1.80
2023-02-05T09:01:59.486Z,1.80
2023-02-05T09:07:01.255Z,1.65
2023-02-05T09:12:03.321Z,1.98
2023-02-05T09:17:07.246Z,1.48
2023-02-05T09:22:09.929Z,1.73
2023-02-05T09:27:14.362Z,1.55
2023-02-05T09:32:16.391Z,1.45
2023-02-05T09:37:18.608Z,2.13
2023-02-05T09:43:04.715Z,1.75
2023-02-05T09:48:10.501Z,1.45
2023-02-05T09:53:18.969Z,1.25
2023-02-05T09:58:31.130Z,1.83
2023-02-05T10:03:47.101Z,1.35
2023-02-05T10:08:58.613Z,2.65
2023-02-05T10:14:25.235Z,1.88
2023-02-05T10:19:47.518Z,2.97
2023-02-05T10:24:54.843Z,1.75
2023-02-05T10:30:15.909Z,1.95
2023-02-05T10:35:27.165Z,2.45
2023-02-05T10:40:32.875Z,2.45
2023-02-05T10:45:35.145Z,2.65
2023-02-05T10:51:05.893Z,2.28
2023-02-05T10:56:08.223Z,2.30
2023-02-05T11:01:17.550Z,2.92
2023-02-05T11:06:20.830Z,2.70
2023-02-05T11:11:29.074Z,2.85
2023-02-05T11:16:41.486Z,3.53
2023-02-05T11:22:24.236Z,3.10
2023-02-05T11:27:27.715Z,3.30
2023-02-05T11:32:36.601Z,3.00
2023-02-05T11:37:41.774Z,3.30
2023-02-05T11:42:50.965Z,2.15
2023-02-05T11:47:53.169Z,3.33
2023-02-05T11:52:56.708Z,2.80
2023-02-05T11:58:36.226Z,3.83
2023-02-05T12:03:38.937Z,2.95
2023-02-05T12:08:52.257Z,2.67
2023-02-05T12:14:07.459Z,3.08
2023-02-05T12:19:35.661Z,2.60
2023-02-05T12:24:40.609Z,3.45
2023-02-05T12:30:33.481Z,2.83
2023-02-05T12:35:51.959Z,2.35
2023-02-05T12:41:02.639Z,3.47
2023-02-05T12:46:13.607Z,2.42
2023-02-05T12:51:34.563Z,2.90
2023-02-05T12:56:52.599Z,3.05
2023-02-05T13:02:00.977Z,2.28
2023-02-05T13:07:26.387Z,2.40
2023-02-05T13:12:32.826Z,2.22
2023-02-05T13:17:40.812Z,3.28
2023-02-05T13:23:11.936Z,3.33
2023-02-05T13:28:40.475Z,3.63
2023-02-05T13:33:43.618Z,2.88
2023-02-05T13:39:07.321Z,2.72
2023-02-05T13:44:37.447Z,2.42
2023-02-05T13:49:50.668Z,2.67
2023-02-05T13:55:24.172Z,3.15
2023-02-05T14:00:27.762Z,2.00
2023-02-05T14:05:36.509Z,2.58
2023-02-05T14:10:42.284Z,2.42
2023-02-05T14:15:44.551Z,3.28
2023-02-05T14:20:46.384Z,2.38
2023-02-05T14:26:03.428Z,3.05
2023-02-05T14:31:07.542Z,2.60
2023-02-05T14:36:21.133Z,2.25
2023-02-05T14:41:33.791Z,2.25
2023-02-05T14:46:40.009Z,3.03
2023-02-05T14:51:48.728Z,2.50
2023-02-05T14:56:55.370Z,2.42
2023-02-05T15:01:59.428Z,3.08
2023-02-05T15:07:11.040Z,3.10
2023-02-05T15:13:04.258Z,1.80
2023-02-05T15:18:16.946Z,2.38
2023-02-05T15:23:32.499Z,2.22
2023-02-05T15:28:45.491Z,2.47
2023-02-05T15:33:58.575Z,2.30
2023-02-05T15:39:24.227Z,2.53
2023-02-05T15:44:30.122Z,2.22
2023-02-05T15:49:37.529Z,1.90
2023-02-05T15:54:40.103Z,2.47
2023-02-05T15:59:41.930Z,2.67
2023-02-05T16:04:43.798Z,3.92
2023-02-05T16:09:53.872Z,1.50
2023-02-05T16:15:07.685Z,2.35
2023-02-05T16:20:26.662Z,2.80
2023-02-05T16:25:44.510Z,3.60
2023-02-05T16:30:47.877Z,2.85
2023-02-05T16:35:49.829Z,1.90
2023-02-05T16:40:55.869Z,3.33
2023-02-05T16:46:07.000Z,2.88
2023-02-05T16:51:35.540Z,2.65
2023-02-05T16:56:59.715Z,2.78
2023-02-05T17:02:03.330Z,3.70
2023-02-05T17:07:17.907Z,2.72
2023-02-05T17:12:23.195Z,2.70
2023-02-05T17:17:26.924Z,3.13
2023-02-05T17:22:29.378Z,3.17
2023-02-05T17:27:37.841Z,3.95
2023-02-05T17:32:39.677Z,2.75
2023-02-05T17:37:41.532Z,4.25
2023-02-05T17:42:45.421Z,3.97
2023-02-05T17:47:49.059Z,3.53
2023-02-05T17:52:52.271Z,3.38
2023-02-05T17:57:54.464Z,2.92
2023-02-05T18:02:56.475Z,3.03
2023-02-05T18:07:59.705Z,3.88
2023-02-05T18:13:01.563Z,3.50
2023-02-05T18:18:03.494Z,3.95
2023-02-05T18:23:05.666Z,4.20
2023-02-05T18:28:07.459Z,3.53
2023-02-05T18:33:09.230Z,4.18
2023-02-05T18:38:11.129Z,3.75
2023-02-05T18:43:13.394Z,3.33
2023-02-05T18:48:15.228Z,4.57
2023-02-05T18:53:19.514Z,4.95
2023-02-05T18:58:21.367Z,3.40
2023-02-05T19:03:24.251Z,4.85
2023-02-05T19:08:26.120Z,5.78
2023-02-05T19:13:28.043Z,4.60
2023-02-05T19:18:31.829Z,4.30
2023-02-05T19:23:34.061Z,4.63
2023-02-05T19:28:36.714Z,4.05
2023-02-05T19:33:39.385Z,4.10
2023-02-05T19:38:42.151Z,4.13
2023-02-05T19:43:50.435Z,4.88
2023-02-05T19:48:53.139Z,4.43
2023-02-05T19:53:57.614Z,5.05
2023-02-05T19:58:59.500Z,6.47
2023-02-05T20:04:11.386Z,6.28
2023-02-05T20:09:14.514Z,4.30
2023-02-05T20:14:17.573Z,8.18
2023-02-05T20:19:19.868Z,4.40
2023-02-05T20:24:22.482Z,4.95
2023-02-05T20:29:43.057Z,5.03
2023-02-05T20:34:50.026Z,4.13
2023-02-05T20:39:51.889Z,6.20
2023-02-05T20:44:53.999Z,6.47
2023-02-05T20:49:55.822Z,6.38
2023-02-05T20:54:58.221Z,4.88
2023-02-05T20:59:59.985Z,5.18
2023-02-05T21:05:01.742Z,5.18
2023-02-05T21:10:06.218Z,5.10
2023-02-05T21:15:08.427Z,4.47
2023-02-05T21:20:10.656Z,5.05
2023-02-05T21:25:12.532Z,5.57
2023-02-05T21:30:15.022Z,6.78
2023-02-05T21:35:17.230Z,4.88
2023-02-05T21:40:19.078Z,5.45
2023-02-05T21:45:21.248Z,5.20
2023-02-05T21:50:23.369Z,5.78
2023-02-05T21:55:26.862Z,4.63
2023-02-05T22:00:28.706Z,5.60
2023-02-05T22:05:30.481Z,5.00
2023-02-05T22:10:32.421Z,4.75
2023-02-05T22:15:34.641Z,5.75
2023-02-05T22:20:36.624Z,4.22
2023-02-05T22:25:38.512Z,4.68
2023-02-05T22:30:41.270Z,5.30
2023-02-05T22:35:43.181Z,5.07
2023-02-05T22:40:44.946Z,6.80
2023-02-05T22:45:46.831Z,5.53
2023-02-05T22:50:48.856Z,4.28
2023-02-05T22:55:50.787Z,5.28
2023-02-05T23:00:52.662Z,4.35
2023-02-05T23:05:54.441Z,4.72
2023-02-05T23:10:56.415Z,5.22
2023-02-05T23:15:58.284Z,6.07
2023-02-05T23:21:00.118Z,6.25
2023-02-05T23:26:13.728Z,5.90
2023-02-05T23:31:16.786Z,5.70
2023-02-05T23:36:18.852Z,6.97
2023-02-05T23:41:36.176Z,5.55
2023-02-05T23:46:39.508Z,6.50
2023-02-05T23:51:41.878Z,5.63
2023-02-05T23:56:43.912Z,5.20
